Time;durP1;ratioP1;P1;durP2;ratioP2;P2;SDS_P1;SDS_P2;PMS_P1;PMS_P2;Temp;Humidity;BMP_temperature;BMP_pressure;BME280_temperature;BME280_humidity;BME280_pressure;Samples;Min_cycle;Max_cycle;Signal;HPM_P1;HPM_P2
2023/12/22 00:00:04;;;;;;;1.73;1.20;;;8.60;99.90;;;;;;968609;148;27327;-86
2023/12/22 00:02:30;;;;;;;0.70;0.70;;;8.60;99.90;;;;;;968711;147;27228;-87
2023/12/22 00:04:56;;;;;;;0.43;0.43;;;8.60;99.90;;;;;;968784;146;27306;-84
2023/12/22 00:07:23;;;;;;;0.60;0.60;;;8.60;99.90;;;;;;969219;146;27321;-84
2023/12/22 00:09:49;;;;;;;1.77;0.70;;;8.70;99.90;;;;;;968161;147;27395;-85
2023/12/22 00:12:16;;;;;;;4.03;1.17;;;8.70;99.90;;;;;;968746;146;27265;-84
2023/12/22 00:14:43;;;;;;;1.60;0.83;;;8.70;99.90;;;;;;968707;147;27435;-88
2023/12/22 00:17:09;;;;;;;2.40;0.90;;;8.70;99.90;;;;;;968543;147;27310;-89
2023/12/22 00:19:36;;;;;;;2.10;0.90;;;8.70;99.90;;;;;;968902;145;27398;-88
2023/12/22 00:22:03;;;;;;;1.10;1.00;;;8.80;99.90;;;;;;968146;147;27243;-88
2023/12/22 00:24:29;;;;;;;0.87;0.70;;;8.80;99.90;;;;;;968441;147;27378;-88
2023/12/22 00:26:56;;;;;;;1.53;1.10;;;8.80;99.90;;;;;;968645;145;27319;-88
2023/12/22 00:29:22;;;;;;;1.20;0.87;;;8.80;99.90;;;;;;968835;145;27326;-88
2023/12/22 00:31:49;;;;;;;2.03;1.00;;;8.90;99.90;;;;;;968817;148;27456;-88
2023/12/22 00:34:15;;;;;;;3.80;0.97;;;8.90;99.90;;;;;;968641;148;27251;-89
2023/12/22 00:36:42;;;;;;;1.23;0.93;;;8.90;99.90;;;;;;968716;147;27310;-89
2023/12/22 00:39:08;;;;;;;1.43;1.07;;;9.00;99.90;;;;;;969239;146;27412;-89
2023/12/22 00:41:35;;;;;;;0.80;0.60;;;9.00;99.90;;;;;;968195;146;27332;-88
2023/12/22 00:44:02;;;;;;;1.90;1.23;;;9.00;99.90;;;;;;968586;148;27277;-88
2023/12/22 00:46:28;;;;;;;0.87;0.80;;;9.00;99.90;;;;;;968074;147;27277;-88
2023/12/22 00:48:55;;;;;;;0.60;0.60;;;9.10;99.90;;;;;;969236;146;27326;-88
2023/12/22 00:51:21;;;;;;;0.93;0.73;;;9.00;99.90;;;;;;968819;147;27393;-89
2023/12/22 00:53:48;;;;;;;1.53;0.93;;;9.00;99.90;;;;;;969502;147;27355;-89
2023/12/22 00:56:15;;;;;;;0.80;0.80;;;9.00;99.90;;;;;;969565;147;27647;-89
2023/12/22 00:58:41;;;;;;;2.10;0.90;;;9.00;99.90;;;;;;969080;146;27263;-91
2023/12/22 01:01:08;;;;;;;0.93;0.53;;;9.00;99.90;;;;;;968850;147;27403;-88
2023/12/22 01:03:34;;;;;;;1.13;0.60;;;9.00;99.90;;;;;;969691;147;27330;-88
2023/12/22 01:06:01;;;;;;;0.70;0.70;;;9.00;99.90;;;;;;969517;146;28515;-88
2023/12/22 01:08:27;;;;;;;1.43;0.50;;;8.90;99.90;;;;;;967956;147;27394;-89
2023/12/22 01:10:54;;;;;;;1.33;0.70;;;8.90;99.90;;;;;;969320;145;27402;-89
2023/12/22 01:13:21;;;;;;;1.00;0.70;;;8.90;99.90;;;;;;968263;148;27453;-89
2023/12/22 01:15:47;;;;;;;1.50;0.70;;;8.90;99.90;;;;;;967999;147;27411;-89
2023/12/22 01:18:14;;;;;;;0.67;0.67;;;8.90;99.90;;;;;;968918;148;27293;-88
2023/12/22 01:20:40;;;;;;;0.53;0.50;;;8.90;99.90;;;;;;970223;145;27406;-87
2023/12/22 01:23:07;;;;;;;1.87;0.70;;;8.90;99.90;;;;;;971958;145;27341;-91
2023/12/22 01:25:34;;;;;;;0.77;0.77;;;9.00;99.90;;;;;;968979;147;27322;-88
2023/12/22 01:28:00;;;;;;;0.67;0.67;;;9.00;99.90;;;;;;969241;145;27344;-86
2023/12/22 01:30:27;;;;;;;0.77;0.70;;;9.00;99.90;;;;;;969185;147;27378;-86
2023/12/22 01:32:53;;;;;;;1.07;0.63;;;9.00;99.90;;;;;;968614;146;27406;-85
2023/12/22 01:35:20;;;;;;;0.60;0.60;;;9.00;99.90;;;;;;969314;147;27831;-84
2023/12/22 01:37:48;;;;;;;2.40;0.70;;;9.00;99.90;;;;;;969280;146;27333;-84
2023/12/22 01:40:13;;;;;;;1.13;0.73;;;9.00;99.90;;;;;;969301;146;27315;-85
2023/12/22 01:42:40;;;;;;;1.93;0.80;;;9.00;99.90;;;;;;968767;147;27336;-86
2023/12/22 01:45:06;;;;;;;1.93;0.63;;;9.00;99.90;;;;;;968446;148;27302;-85
2023/12/22 01:47:33;;;;;;;0.40;0.40;;;8.90;99.90;;;;;;967508;146;27290;-85
2023/12/22 01:50:00;;;;;;;1.17;0.80;;;8.80;99.90;;;;;;969799;148;27310;-86
2023/12/22 01:52:26;;;;;;;0.50;0.50;;;8.80;99.90;;;;;;968234;147;27335;-86
2023/12/22 01:54:54;;;;;;;0.67;0.53;;;8.70;99.90;;;;;;968380;145;27318;-85
2023/12/22 01:57:19;;;;;;;0.50;0.50;;;8.60;99.90;;;;;;968001;147;28828;-86
2023/12/22 01:59:46;;;;;;;0.57;0.57;;;8.50;99.90;;;;;;969216;147;27560;-86
2023/12/22 02:02:12;;;;;;;0.83;0.60;;;8.40;99.90;;;;;;968929;147;27333;-88
2023/12/22 02:04:39;;;;;;;0.77;0.50;;;8.40;99.90;;;;;;968206;146;27332;-87
2023/12/22 02:07:08;;;;;;;0.50;0.50;;;8.30;99.90;;;;;;969325;147;27294;-83
2023/12/22 02:09:32;;;;;;;0.60;0.60;;;8.30;99.90;;;;;;968891;147;27298;-82
2023/12/22 02:11:59;;;;;;;0.50;0.50;;;8.20;99.90;;;;;;968481;146;27304;-83
2023/12/22 02:14:25;;;;;;;0.57;0.50;;;8.20;99.90;;;;;;969286;148;27294;-86
2023/12/22 02:16:58;;;;;;;1.43;0.57;;;8.20;99.90;;;;;;968666;145;27911;-89
2023/12/22 02:19:40;;;;;;;0.30;0.30;;;8.10;99.90;;;;;;968191;147;27246;-89
2023/12/22 02:22:06;;;;;;;0.43;0.43;;;8.10;99.90;;;;;;972856;146;27449;-90
2023/12/22 02:24:33;;;;;;;0.40;0.40;;;8.10;99.90;;;;;;974667;146;27309;-87
2023/12/22 02:27:05;;;;;;;0.40;0.40;;;8.00;99.90;;;;;;973878;146;27324;-89
2023/12/22 02:29:34;;;;;;;0.70;0.43;;;8.00;99.90;;;;;;973747;145;27312;-88
2023/12/22 02:32:00;;;;;;;2.20;0.57;;;8.00;99.90;;;;;;974816;147;27249;-84
2023/12/22 02:34:27;;;;;;;1.17;0.50;;;7.90;99.90;;;;;;975073;146;27345;-88
2023/12/22 02:36:54;;;;;;;0.50;0.50;;;7.90;99.90;;;;;;974200;147;27350;-85
2023/12/22 02:39:20;;;;;;;0.80;0.67;;;7.90;99.90;;;;;;974373;146;27342;-88
2023/12/22 02:41:47;;;;;;;0.40;0.40;;;7.90;99.90;;;;;;929420;153;27316;-87
2023/12/22 02:44:13;;;;;;;0.53;0.53;;;7.90;99.90;;;;;;932182;153;27352;-86
2023/12/22 02:46:41;;;;;;;0.63;0.57;;;7.90;99.90;;;;;;949207;149;27360;-87
2023/12/22 02:49:06;;;;;;;0.50;0.40;;;7.90;99.90;;;;;;927130;152;27322;-87
2023/12/22 02:51:33;;;;;;;0.47;0.43;;;7.80;99.90;;;;;;948097;148;27290;-87
2023/12/22 02:54:00;;;;;;;0.73;0.67;;;7.90;99.90;;;;;;949542;150;27373;-85
2023/12/22 02:56:26;;;;;;;0.63;0.40;;;7.80;99.90;;;;;;961924;146;27318;-86
2023/12/22 02:58:53;;;;;;;0.43;0.40;;;7.80;99.90;;;;;;959730;146;27338;-83
2023/12/22 03:01:19;;;;;;;0.73;0.40;;;7.80;99.90;;;;;;960476;146;27218;-83
2023/12/22 03:03:46;;;;;;;0.40;0.40;;;7.80;99.90;;;;;;970402;145;27269;-85
2023/12/22 03:06:13;;;;;;;0.30;0.30;;;7.80;99.90;;;;;;969164;145;27315;-85
2023/12/22 03:08:39;;;;;;;0.40;0.40;;;7.80;99.90;;;;;;968458;145;27362;-84
2023/12/22 03:11:06;;;;;;;0.30;0.30;;;7.80;99.90;;;;;;968369;146;27230;-85
2023/12/22 03:13:32;;;;;;;0.50;0.40;;;7.80;99.90;;;;;;968785;146;27358;-85
2023/12/22 03:15:59;;;;;;;0.50;0.50;;;7.80;99.90;;;;;;968510;146;27341;-85
2023/12/22 03:18:25;;;;;;;0.40;0.40;;;7.80;99.90;;;;;;968156;145;27422;-84
2023/12/22 03:20:52;;;;;;;0.70;0.70;;;7.80;99.90;;;;;;968887;145;27853;-86
2023/12/22 03:23:19;;;;;;;1.00;0.70;;;7.70;99.90;;;;;;968865;146;27394;-86
2023/12/22 03:25:45;;;;;;;0.30;0.30;;;7.70;99.90;;;;;;969068;146;27283;-86
2023/12/22 03:28:12;;;;;;;0.80;0.60;;;7.70;99.90;;;;;;968898;147;27411;-86
2023/12/22 03:30:38;;;;;;;0.67;0.67;;;7.70;99.90;;;;;;968453;145;27355;-86
2023/12/22 03:33:06;;;;;;;0.47;0.47;;;7.70;99.90;;;;;;968253;145;27342;-86
2023/12/22 03:35:32;;;;;;;0.73;0.50;;;7.70;99.90;;;;;;969175;147;27359;-86
2023/12/22 03:37:58;;;;;;;0.97;0.50;;;7.70;99.90;;;;;;968911;147;27311;-86
2023/12/22 03:40:25;;;;;;;1.30;0.40;;;7.70;99.90;;;;;;969343;148;27325;-86
2023/12/22 03:42:51;;;;;;;0.57;0.50;;;7.70;99.90;;;;;;969349;147;27490;-86
2023/12/22 03:45:18;;;;;;;1.13;1.07;;;7.70;99.90;;;;;;968297;148;27350;-86
2023/12/22 03:47:45;;;;;;;0.50;0.50;;;7.70;99.90;;;;;;968884;147;27246;-87
2023/12/22 03:50:11;;;;;;;0.40;0.40;;;7.80;99.90;;;;;;969260;145;27321;-86
2023/12/22 03:52:38;;;;;;;0.53;0.50;;;7.70;99.90;;;;;;968361;145;27328;-86
2023/12/22 03:55:04;;;;;;;0.67;0.67;;;7.70;99.90;;;;;;967499;148;27295;-85
2023/12/22 03:57:31;;;;;;;0.93;0.50;;;7.70;99.90;;;;;;968344;148;27286;-86
2023/12/22 03:59:57;;;;;;;0.60;0.60;;;7.70;99.90;;;;;;968531;148;27333;-85
2023/12/22 04:02:24;;;;;;;0.80;0.80;;;7.60;99.90;;;;;;968514;148;27930;-86
2023/12/22 04:04:51;;;;;;;0.50;0.50;;;7.60;99.90;;;;;;968277;148;27344;-86
2023/12/22 04:07:17;;;;;;;1.97;0.90;;;7.50;99.90;;;;;;968381;147;27363;-86
2023/12/22 04:09:44;;;;;;;1.17;1.07;;;7.50;99.90;;;;;;968869;145;27309;-85
2023/12/22 04:12:10;;;;;;;1.13;0.87;;;7.50;99.90;;;;;;968764;148;27467;-85
2023/12/22 04:14:37;;;;;;;1.00;0.90;;;7.50;99.90;;;;;;968732;148;27371;-86
2023/12/22 04:17:04;;;;;;;1.87;1.20;;;7.50;99.90;;;;;;969377;147;27277;-85
2023/12/22 04:19:30;;;;;;;1.77;1.50;;;7.50;99.90;;;;;;968716;146;27336;-86
2023/12/22 04:21:57;;;;;;;2.50;0.87;;;7.50;99.90;;;;;;967566;147;27321;-86
2023/12/22 04:24:23;;;;;;;2.23;1.17;;;7.50;99.90;;;;;;956626;150;27373;-87
2023/12/22 04:26:50;;;;;;;1.10;1.00;;;7.50;99.90;;;;;;955793;150;27288;-86
2023/12/22 04:29:16;;;;;;;2.17;1.10;;;7.60;99.90;;;;;;956688;150;27279;-86
2023/12/22 04:31:43;;;;;;;1.30;1.00;;;7.60;99.90;;;;;;956362;148;27804;-86
2023/12/22 04:34:10;;;;;;;1.80;1.00;;;7.60;99.90;;;;;;955426;148;27343;-87
2023/12/22 04:36:36;;;;;;;0.80;0.80;;;7.70;99.90;;;;;;955791;147;27296;-86
2023/12/22 04:39:03;;;;;;;3.60;1.10;;;7.70;99.90;;;;;;956432;148;27338;-87
2023/12/22 04:41:29;;;;;;;2.03;0.90;;;7.80;99.90;;;;;;946285;148;27293;-86
2023/12/22 04:43:56;;;;;;;1.37;1.27;;;7.80;99.90;;;;;;946113;150;27426;-86
2023/12/22 04:46:23;;;;;;;1.17;1.00;;;7.90;99.90;;;;;;944738;149;27285;-87
2023/12/22 04:48:49;;;;;;;3.60;1.20;;;7.90;99.90;;;;;;946690;150;27326;-86
2023/12/22 04:51:16;;;;;;;2.30;1.33;;;8.00;99.90;;;;;;949056;148;27374;-86
2023/12/22 04:53:42;;;;;;;2.90;1.43;;;8.00;99.90;;;;;;947069;150;27344;-86
2023/12/22 04:56:09;;;;;;;1.03;1.03;;;8.10;99.90;;;;;;945578;150;27245;-86
2023/12/22 04:58:35;;;;;;;1.53;1.03;;;8.10;99.90;;;;;;945455;150;27403;-86
2023/12/22 05:01:02;;;;;;;3.20;1.23;;;8.20;99.90;;;;;;946310;151;27382;-88
2023/12/22 05:03:29;;;;;;;3.13;1.63;;;8.30;99.90;;;;;;947130;150;27340;-85
2023/12/22 05:05:55;;;;;;;1.60;1.17;;;8.30;99.90;;;;;;945463;149;27351;-86
2023/12/22 05:08:22;;;;;;;2.10;1.23;;;8.30;99.90;;;;;;946563;151;27458;-85
2023/12/22 05:10:48;;;;;;;2.20;1.13;;;8.30;99.90;;;;;;945857;149;27317;-86
2023/12/22 05:13:15;;;;;;;2.17;1.00;;;8.40;99.90;;;;;;946252;151;27390;-87
2023/12/22 05:15:42;;;;;;;2.33;1.47;;;8.40;99.90;;;;;;946495;149;27441;-85
2023/12/22 05:18:08;;;;;;;2.43;1.30;;;8.40;99.90;;;;;;946619;149;27364;-85
2023/12/22 05:20:35;;;;;;;2.93;1.40;;;8.40;99.90;;;;;;947442;150;27398;-84
2023/12/22 05:23:01;;;;;;;3.90;1.27;;;8.40;99.90;;;;;;952523;147;27299;-84
2023/12/22 05:25:28;;;;;;;1.07;0.97;;;8.50;99.90;;;;;;965905;147;27342;-84
2023/12/22 05:27:54;;;;;;;2.73;1.43;;;8.50;99.90;;;;;;965148;147;27304;-84
2023/12/22 05:30:21;;;;;;;1.87;1.33;;;8.50;99.90;;;;;;965946;147;27754;-84
2023/12/22 05:32:48;;;;;;;2.33;1.40;;;8.60;99.90;;;;;;965194;146;27273;-85
2023/12/22 05:35:14;;;;;;;7.10;1.77;;;8.60;99.90;;;;;;964078;147;27263;-84
2023/12/22 05:37:41;;;;;;;4.37;1.57;;;8.60;99.90;;;;;;964971;146;27427;-83
2023/12/22 05:40:07;;;;;;;2.30;1.50;;;8.60;99.90;;;;;;965870;145;27379;-84
2023/12/22 05:42:34;;;;;;;2.40;1.60;;;8.60;99.90;;;;;;968827;146;27242;-85
2023/12/22 05:45:01;;;;;;;3.50;1.97;;;8.60;99.90;;;;;;969335;147;27367;-84
2023/12/22 05:47:27;;;;;;;2.90;1.83;;;8.60;99.90;;;;;;969149;146;27327;-84
2023/12/22 05:49:54;;;;;;;5.37;1.87;;;8.60;99.90;;;;;;968855;148;27717;-84
2023/12/22 05:52:20;;;;;;;2.70;1.50;;;8.60;99.90;;;;;;969249;148;27384;-83
2023/12/22 05:54:47;;;;;;;4.40;2.30;;;8.60;99.90;;;;;;968658;147;27381;-84
2023/12/22 05:57:14;;;;;;;3.90;1.40;;;8.60;99.90;;;;;;968532;147;27255;-84
2023/12/22 05:59:40;;;;;;;3.00;1.40;;;8.60;99.90;;;;;;968858;146;27330;-83
2023/12/22 06:02:07;;;;;;;2.33;1.50;;;8.60;99.90;;;;;;969209;147;27385;-83
2023/12/22 06:04:34;;;;;;;5.33;1.60;;;8.60;99.90;;;;;;969121;146;27294;-83
2023/12/22 06:07:00;;;;;;;2.33;1.20;;;8.60;99.90;;;;;;968612;147;27716;-87
2023/12/22 06:09:26;;;;;;;4.00;1.70;;;8.60;99.90;;;;;;968749;147;27376;-86
2023/12/22 06:11:53;;;;;;;5.50;1.57;;;8.60;99.90;;;;;;968529;148;27317;-86
2023/12/22 06:14:20;;;;;;;4.07;1.60;;;8.60;99.90;;;;;;968425;148;27373;-87
2023/12/22 06:16:46;;;;;;;4.67;1.57;;;8.60;99.90;;;;;;968929;148;27418;-87
2023/12/22 06:19:13;;;;;;;3.73;1.63;;;8.60;99.90;;;;;;968182;146;27318;-86
2023/12/22 06:21:39;;;;;;;5.70;1.60;;;8.60;99.90;;;;;;968885;145;27323;-82
2023/12/22 06:24:06;;;;;;;3.03;1.50;;;8.60;99.90;;;;;;972011;147;27321;-82
2023/12/22 06:26:33;;;;;;;3.07;1.70;;;8.60;99.90;;;;;;974691;147;27293;-83
2023/12/22 06:28:59;;;;;;;3.50;1.50;;;8.60;99.90;;;;;;974638;147;27253;-84
2023/12/22 06:31:26;;;;;;;3.83;1.40;;;8.60;99.90;;;;;;974315;146;27426;-84
2023/12/22 06:33:53;;;;;;;3.67;1.47;;;8.60;99.90;;;;;;974459;147;27330;-83
2023/12/22 06:36:22;;;;;;;3.93;1.53;;;8.70;99.90;;;;;;974739;145;27818;-83
2023/12/22 06:38:48;;;;;;;2.83;1.40;;;8.70;99.90;;;;;;974443;145;27410;-84
2023/12/22 06:41:26;;;;;;;4.27;1.47;;;8.70;99.90;;;;;;974538;146;27307;-83
2023/12/22 06:43:53;;;;;;;2.57;1.47;;;8.70;99.90;;;;;;974237;147;27268;-84
2023/12/22 06:46:20;;;;;;;4.43;1.47;;;8.80;99.90;;;;;;975186;146;27349;-84
2023/12/22 06:48:46;;;;;;;4.10;1.27;;;8.80;99.90;;;;;;974533;145;27331;-87
2023/12/22 06:51:22;;;;;;;2.57;1.50;;;8.80;99.90;;;;;;974916;147;27324;-85
2023/12/22 06:53:48;;;;;;;4.10;1.63;;;8.80;99.90;;;;;;973727;147;27424;-83
2023/12/22 06:56:15;;;;;;;2.63;1.57;;;8.90;99.90;;;;;;975570;146;27350;-83
2023/12/22 06:58:41;;;;;;;1.97;1.10;;;8.90;99.90;;;;;;974086;147;27448;-84
2023/12/22 07:01:08;;;;;;;4.13;1.33;;;8.90;99.90;;;;;;975035;146;27329;-83
2023/12/22 07:03:35;;;;;;;3.40;1.27;;;9.00;99.90;;;;;;974200;147;27362;-83
2023/12/22 07:06:01;;;;;;;2.87;1.63;;;9.00;99.90;;;;;;974061;147;27278;-84
2023/12/22 07:08:28;;;;;;;4.23;1.53;;;9.00;99.90;;;;;;975048;146;27313;-84
2023/12/22 07:10:54;;;;;;;4.27;1.60;;;9.10;99.90;;;;;;928452;151;28141;-84
2023/12/22 07:13:21;;;;;;;5.90;1.70;;;9.10;99.90;;;;;;949146;148;27789;-82
2023/12/22 07:15:48;;;;;;;3.63;1.20;;;9.10;99.90;;;;;;948407;149;27287;-83
2023/12/22 07:18:14;;;;;;;2.00;1.23;;;9.20;99.90;;;;;;949320;149;27292;-83
2023/12/22 07:20:41;;;;;;;3.00;1.30;;;9.20;99.90;;;;;;947187;148;27420;-85
2023/12/22 07:23:07;;;;;;;3.27;1.17;;;9.20;99.90;;;;;;964644;146;27832;-84
2023/12/22 07:25:38;;;;;;;3.30;1.40;;;9.20;99.90;;;;;;968115;147;27383;-83
2023/12/22 07:28:04;;;;;;;6.13;1.60;;;9.20;99.90;;;;;;966833;146;27421;-85
2023/12/22 07:30:30;;;;;;;1.87;1.27;;;9.20;99.90;;;;;;965250;147;27298;-85
2023/12/22 07:32:56;;;;;;;1.50;1.40;;;9.30;99.90;;;;;;966000;148;27325;-87
2023/12/22 07:35:23;;;;;;;2.70;1.17;;;9.30;99.90;;;;;;965567;147;27361;-86
2023/12/22 07:37:50;;;;;;;7.67;1.20;;;9.30;99.90;;;;;;965881;147;27310;-84
2023/12/22 07:40:16;;;;;;;3.97;1.33;;;9.30;99.90;;;;;;966732;147;27283;-86
2023/12/22 07:42:43;;;;;;;1.33;1.10;;;9.40;99.90;;;;;;921256;153;27494;-85
2023/12/22 07:45:09;;;;;;;2.20;1.50;;;9.40;99.90;;;;;;966546;146;27305;-85
2023/12/22 08:00:47;;;;;;;3.60;1.53;;;9.40;99.90;;;;;;961515;145;40748;-90
2023/12/22 08:03:14;;;;;;;3.13;1.40;;;9.60;99.90;;;;;;947247;148;27411;-80
2023/12/22 08:05:41;;;;;;;1.37;1.23;;;9.70;99.90;;;;;;949477;148;27282;-87
2023/12/22 08:08:07;;;;;;;3.13;1.40;;;9.80;99.90;;;;;;947970;148;27452;-87
2023/12/22 08:10:34;;;;;;;2.00;1.47;;;9.90;99.90;;;;;;944826;149;27335;-85
2023/12/22 08:13:00;;;;;;;2.70;1.50;;;9.90;99.90;;;;;;945209;149;27410;-85
2023/12/22 08:15:27;;;;;;;2.70;1.40;;;10.00;99.90;;;;;;945163;149;27211;-86
2023/12/22 08:17:53;;;;;;;5.60;1.90;;;10.00;99.90;;;;;;944979;149;27715;-85
2023/12/22 08:20:20;;;;;;;4.20;1.70;;;10.00;99.90;;;;;;944389;148;27313;-86
2023/12/22 08:22:47;;;;;;;4.47;1.60;;;10.00;99.90;;;;;;944488;148;27379;-85
2023/12/22 08:25:13;;;;;;;5.80;1.60;;;10.00;99.90;;;;;;944079;149;27785;-85
2023/12/22 08:27:40;;;;;;;3.47;1.80;;;10.10;99.90;;;;;;944504;149;27247;-86
2023/12/22 08:30:06;;;;;;;4.50;1.87;;;10.10;99.90;;;;;;943482;149;27375;-86
2023/12/22 08:32:33;;;;;;;4.03;1.80;;;10.10;99.90;;;;;;944651;149;27324;-85
2023/12/22 08:35:00;;;;;;;2.33;1.40;;;10.10;99.90;;;;;;945193;148;27391;-86
2023/12/22 08:37:26;;;;;;;2.73;1.60;;;10.10;99.90;;;;;;944213;149;27266;-85
2023/12/22 08:39:53;;;;;;;2.87;1.77;;;10.10;99.90;;;;;;944770;149;27284;-85
2023/12/22 08:42:19;;;;;;;3.63;1.60;;;10.20;99.90;;;;;;944775;149;27721;-85
2023/12/22 08:44:46;;;;;;;9.13;2.10;;;10.20;99.90;;;;;;945204;148;27356;-86
2023/12/22 08:47:13;;;;;;;4.37;1.87;;;10.20;99.90;;;;;;944223;149;27485;-85
2023/12/22 08:49:39;;;;;;;4.93;1.83;;;10.20;99.90;;;;;;944709;148;27332;-85
2023/12/22 08:52:06;;;;;;;2.97;1.70;;;10.20;99.90;;;;;;944407;149;27337;-86
2023/12/22 08:54:33;;;;;;;4.17;1.60;;;10.30;99.90;;;;;;944317;149;27359;-86
2023/12/22 08:56:59;;;;;;;5.87;2.00;;;10.30;99.90;;;;;;945199;149;27375;-82
2023/12/22 08:59:26;;;;;;;2.50;1.47;;;10.30;99.90;;;;;;941177;148;27443;-82
2023/12/22 09:01:52;;;;;;;2.13;1.00;;;10.30;99.90;;;;;;925205;151;27463;-82
2023/12/22 09:04:22;;;;;;;5.60;1.60;;;10.40;99.90;;;;;;924541;151;28024;-82
2023/12/22 09:06:45;;;;;;;3.90;1.33;;;10.40;99.90;;;;;;923594;152;27366;-81
2023/12/22 09:09:12;;;;;;;2.47;1.40;;;10.40;99.90;;;;;;923856;151;27414;-82
2023/12/22 09:11:38;;;;;;;2.13;1.20;;;10.40;99.90;;;;;;923267;152;27362;-83
2023/12/22 09:14:08;;;;;;;1.97;1.13;;;10.40;99.90;;;;;;922855;152;27486;-81
2023/12/22 09:16:32;;;;;;;1.73;1.40;;;10.40;99.90;;;;;;924581;152;27377;-83
2023/12/22 09:18:58;;;;;;;2.60;0.97;;;10.50;99.90;;;;;;923257;151;27967;-82
2023/12/22 09:21:26;;;;;;;3.10;1.40;;;10.50;99.90;;;;;;923819;152;27434;-82
2023/12/22 09:23:51;;;;;;;1.70;1.60;;;10.50;99.90;;;;;;923229;151;27401;-83
2023/12/22 09:26:18;;;;;;;2.73;1.23;;;10.50;99.90;;;;;;923664;151;27372;-83
2023/12/22 09:28:45;;;;;;;1.10;0.90;;;10.50;99.90;;;;;;925163;151;27358;-83
2023/12/22 09:31:12;;;;;;;1.23;0.90;;;10.50;99.90;;;;;;923737;151;27319;-82
2023/12/22 09:33:38;;;;;;;1.90;0.93;;;10.50;99.90;;;;;;924023;151;27371;-82
2023/12/22 09:36:04;;;;;;;1.13;0.90;;;10.60;99.90;;;;;;924252;152;27831;-85
2023/12/22 09:38:31;;;;;;;1.77;0.90;;;10.60;99.90;;;;;;920390;152;27940;-84
2023/12/22 09:40:58;;;;;;;1.70;0.80;;;10.50;99.90;;;;;;920523;152;27389;-84
2023/12/22 09:43:24;;;;;;;2.40;0.80;;;10.60;99.90;;;;;;920150;152;27486;-82
2023/12/22 09:45:51;;;;;;;1.07;0.80;;;10.60;99.90;;;;;;920088;152;27339;-83
2023/12/22 09:48:17;;;;;;;2.30;1.10;;;10.60;99.90;;;;;;920483;152;27399;-83
2023/12/22 09:50:44;;;;;;;1.23;0.80;;;10.60;99.90;;;;;;919835;152;27391;-83
2023/12/22 09:53:13;;;;;;;1.80;0.80;;;10.50;99.90;;;;;;919272;152;27340;-85
2023/12/22 09:55:43;;;;;;;1.50;0.63;;;10.50;99.90;;;;;;919631;152;27351;-86
2023/12/22 09:58:09;;;;;;;1.23;0.90;;;10.50;99.90;;;;;;920575;152;27411;-82
2023/12/22 10:00:36;;;;;;;1.87;0.80;;;10.50;99.90;;;;;;924939;150;27506;-83
2023/12/22 10:03:02;;;;;;;1.00;1.00;;;10.50;99.90;;;;;;936101;149;27332;-83
2023/12/22 10:05:30;;;;;;;1.10;1.00;;;10.50;99.90;;;;;;936940;149;27375;-83
2023/12/22 10:07:55;;;;;;;1.63;1.10;;;10.50;99.90;;;;;;937940;149;27322;-83
2023/12/22 10:10:22;;;;;;;1.87;0.90;;;10.50;99.90;;;;;;938662;149;27282;-83
2023/12/22 10:12:49;;;;;;;1.30;1.20;;;10.50;99.90;;;;;;936020;149;27295;-84
2023/12/22 10:15:15;;;;;;;1.67;1.33;;;10.60;99.90;;;;;;937190;149;27260;-82
2023/12/22 10:17:42;;;;;;;2.93;1.43;;;10.60;99.90;;;;;;937363;149;27338;-82
2023/12/22 10:20:09;;;;;;;2.33;1.30;;;10.60;99.90;;;;;;938140;149;27821;-83
2023/12/22 10:22:35;;;;;;;2.40;1.40;;;10.60;99.90;;;;;;937063;149;27268;-83
2023/12/22 10:25:02;;;;;;;4.90;1.80;;;10.70;99.90;;;;;;929171;150;27325;-83
2023/12/22 10:27:28;;;;;;;4.63;1.50;;;10.70;99.90;;;;;;926776;150;27411;-83
2023/12/22 10:29:55;;;;;;;1.87;1.30;;;10.70;99.90;;;;;;930463;149;27835;-83
2023/12/22 10:32:21;;;;;;;2.67;1.30;;;10.80;99.90;;;;;;937029;149;27359;-83
2023/12/22 10:34:48;;;;;;;2.90;1.60;;;10.80;99.90;;;;;;937174;149;27228;-83
2023/12/22 10:37:15;;;;;;;1.83;1.43;;;10.80;99.90;;;;;;935868;150;27421;-83
2023/12/22 10:39:41;;;;;;;5.20;1.67;;;10.80;99.90;;;;;;936652;149;27420;-83
2023/12/22 10:42:08;;;;;;;3.67;1.83;;;10.90;99.90;;;;;;931352;149;27500;-83
2023/12/22 10:44:34;;;;;;;4.80;1.90;;;10.90;99.90;;;;;;927629;150;27401;-82
2023/12/22 10:47:02;;;;;;;3.03;1.73;;;11.00;99.90;;;;;;927409;150;27447;-82
2023/12/22 10:49:28;;;;;;;3.83;2.00;;;11.00;99.90;;;;;;930361;150;27422;-85
2023/12/22 10:51:54;;;;;;;4.63;2.27;;;11.00;99.90;;;;;;936880;149;27478;-83
2023/12/22 10:54:21;;;;;;;6.87;2.37;;;11.00;99.90;;;;;;936824;149;27365;-86
2023/12/22 10:56:47;;;;;;;3.63;1.90;;;11.00;99.90;;;;;;937151;149;27723;-85
2023/12/22 10:59:14;;;;;;;7.13;2.50;;;11.00;99.90;;;;;;934977;149;27232;-86
2023/12/22 11:01:41;;;;;;;6.47;2.17;;;11.00;99.90;;;;;;928166;149;27371;-83
2023/12/22 11:04:07;;;;;;;4.47;2.07;;;11.00;99.90;;;;;;920482;152;27367;-83
2023/12/22 11:06:34;;;;;;;6.50;2.30;;;11.10;99.90;;;;;;920409;153;27341;-84
2023/12/22 11:09:00;;;;;;;8.53;2.50;;;11.10;99.90;;;;;;919655;152;27424;-86
2023/12/22 11:11:33;;;;;;;7.63;3.20;;;11.10;99.90;;;;;;922484;153;27390;-86
2023/12/22 11:14:02;;;;;;;6.73;2.50;;;11.10;99.90;;;;;;919545;152;27463;-84
2023/12/22 11:16:28;;;;;;;3.93;2.30;;;11.20;99.90;;;;;;919846;152;27373;-84
2023/12/22 11:18:55;;;;;;;4.73;2.87;;;11.20;99.90;;;;;;920271;152;27838;-84
2023/12/22 11:21:22;;;;;;;5.40;2.77;;;11.30;99.90;;;;;;921614;152;27326;-84
2023/12/22 11:23:49;;;;;;;5.72;2.70;;;11.30;99.90;;;;;;920926;152;27491;-84
2023/12/22 11:26:15;;;;;;;9.37;2.67;;;11.40;99.90;;;;;;921247;152;27316;-84
2023/12/22 11:28:43;;;;;;;6.12;2.33;;;11.50;99.90;;;;;;920089;153;27438;-84
2023/12/22 11:31:08;;;;;;;4.45;2.33;;;11.50;99.90;;;;;;921266;152;27477;-84
2023/12/22 11:33:34;;;;;;;6.43;2.63;;;11.60;99.90;;;;;;919638;152;27464;-85
2023/12/22 11:36:01;;;;;;;7.50;3.30;;;11.60;99.90;;;;;;920688;152;27338;-84
2023/12/22 11:38:28;;;;;;;8.70;2.87;;;11.70;99.90;;;;;;920676;152;27400;-84
2023/12/22 11:40:54;;;;;;;5.67;2.90;;;11.70;99.90;;;;;;920856;152;27374;-84
2023/12/22 11:43:21;;;;;;;5.28;2.67;;;11.80;99.90;;;;;;920604;152;27451;-84
2023/12/22 11:45:50;;;;;;;6.37;2.83;;;11.80;99.90;;;;;;916710;152;27387;-82
2023/12/22 11:48:16;;;;;;;9.47;3.10;;;11.90;99.90;;;;;;919800;153;27304;-86
2023/12/22 11:50:44;;;;;;;6.13;2.80;;;11.90;99.90;;;;;;920969;152;27448;-84
2023/12/22 11:53:21;;;;;;;7.12;2.47;;;12.00;99.90;;;;;;920505;152;27698;-85
2023/12/22 11:56:08;;;;;;;11.73;3.30;;;12.00;99.90;;;;;;920346;152;27351;-85
2023/12/22 11:58:42;;;;;;;5.27;2.43;;;12.10;99.90;;;;;;920074;152;27372;-83
2023/12/22 12:01:09;;;;;;;9.65;2.90;;;12.10;99.90;;;;;;921412;150;27401;-85
2023/12/22 12:03:39;;;;;;;6.55;2.33;;;12.10;99.90;;;;;;938064;150;27861;-84
2023/12/22 12:06:11;;;;;;;7.00;2.40;;;12.10;99.90;;;;;;937341;149;27443;-83
2023/12/22 12:08:37;;;;;;;4.30;2.35;;;12.10;99.90;;;;;;937217;150;27275;-84
2023/12/22 12:11:04;;;;;;;6.33;2.60;;;12.10;99.90;;;;;;937852;150;27342;-83
2023/12/22 12:13:30;;;;;;;6.55;2.60;;;12.10;99.90;;;;;;931301;149;27362;-83
2023/12/22 12:15:59;;;;;;;6.87;2.37;;;12.10;99.90;;;;;;929107;150;27358;-84
2023/12/22 12:18:24;;;;;;;5.97;2.08;;;12.10;99.90;;;;;;931139;151;27303;-83
2023/12/22 12:20:50;;;;;;;4.43;2.10;;;12.10;99.90;;;;;;938152;149;27312;-83
2023/12/22 12:23:17;;;;;;;8.23;2.27;;;12.10;99.90;;;;;;937722;149;27219;-84
2023/12/22 12:25:43;;;;;;;4.30;2.23;;;12.00;99.90;;;;;;937653;149;27275;-83
2023/12/22 12:28:10;;;;;;;3.43;2.00;;;12.00;99.90;;;;;;936875;150;27339;-84
2023/12/22 12:30:36;;;;;;;8.67;2.60;;;11.90;99.90;;;;;;936557;149;27369;-84
2023/12/22 12:33:09;;;;;;;7.17;2.50;;;11.90;99.90;;;;;;937470;149;27215;-84
2023/12/22 12:35:35;;;;;;;3.83;1.93;;;11.80;99.90;;;;;;936845;149;27274;-83
2023/12/22 12:38:02;;;;;;;6.10;2.50;;;11.80;99.90;;;;;;937431;150;27259;-84
2023/12/22 12:40:35;;;;;;;6.20;2.23;;;11.70;99.90;;;;;;930199;149;27318;-85
2023/12/22 12:42:58;;;;;;;3.47;1.73;;;11.70;99.90;;;;;;930281;150;27359;-85
2023/12/22 12:45:25;;;;;;;5.20;1.30;;;11.60;99.90;;;;;;931322;150;27344;-83
2023/12/22 12:48:00;;;;;;;3.20;1.53;;;11.60;99.90;;;;;;931556;150;27364;-86
2023/12/22 12:50:28;;;;;;;4.47;1.43;;;11.60;99.90;;;;;;929269;151;27354;-86
2023/12/22 12:52:54;;;;;;;3.53;1.30;;;11.60;99.90;;;;;;935796;149;27412;-84
2023/12/22 12:55:23;;;;;;;2.00;1.30;;;11.50;99.90;;;;;;937223;149;27368;-84
2023/12/22 12:57:52;;;;;;;3.40;1.90;;;11.50;99.90;;;;;;936897;149;27358;-86
2023/12/22 13:00:28;;;;;;;4.97;3.00;;;11.50;99.90;;;;;;937831;149;27244;-85
2023/12/22 13:02:55;;;;;;;3.40;2.03;;;11.50;99.90;;;;;;930097;149;27745;-83